sensor_id;sensor_type;location;lat;lon;timestamp;pressure;altitude;pressure_sealevel;temperature;humidity
51417;BME280;50158;51.528;6.982;2022-10-24T00:03:16;67990;;;14.95;100
51417;BME280;50158;51.528;6.982;2022-10-24T00:08:13;67990;;;14.91;100
51417;BME280;50158;51.528;6.982;2022-10-24T00:18:22;68020;;;15.26;100
51417;BME280;50158;51.528;6.982;2022-10-24T00:23:18;68010;;;15.12;100
51417;BME280;50158;51.528;6.982;2022-10-24T00:28:15;68000;;;15.05;100
51417;BME280;50158;51.528;6.982;2022-10-24T00:38:16;68000;;;15;100
51417;BME280;50158;51.528;6.982;2022-10-24T00:43:29;67990;;;14.94;100
51417;BME280;50158;51.528;6.982;2022-10-24T00:47:13;68000;;;15.07;100
51417;BME280;50158;51.528;6.982;2022-10-24T00:58:11;67990;;;14.94;100
51417;BME280;50158;51.528;6.982;2022-10-24T01:04:29;68000;;;15;100
51417;BME280;50158;51.528;6.982;2022-10-24T01:08:25;68010;;;15.09;100
51417;BME280;50158;51.528;6.982;2022-10-24T01:13:36;68030;;;15.28;100
51417;BME280;50158;51.528;6.982;2022-10-24T01:23:45;68080;;;15.78;100
51417;BME280;50158;51.528;6.982;2022-10-24T01:30:38;68080;;;15.81;100
51417;BME280;50158;51.528;6.982;2022-10-24T01:33:21;68100;;;15.96;100
51417;BME280;50158;51.528;6.982;2022-10-24T01:38:20;68100;;;15.95;100
51417;BME280;50158;51.528;6.982;2022-10-24T01:43:13;68080;;;15.79;100
51417;BME280;50158;51.528;6.982;2022-10-24T01:49:24;68090;;;15.82;100
51417;BME280;50158;51.528;6.982;2022-10-24T01:54:19;68090;;;15.87;100
51417;BME280;50158;51.528;6.982;2022-10-24T01:55:33;68100;;;15.92;100
51417;BME280;50158;51.528;6.982;2022-10-24T02:00:30;68080;;;15.76;100
51417;BME280;50158;51.528;6.982;2022-10-24T02:04:12;68080;;;15.79;100
51417;BME280;50158;51.528;6.982;2022-10-24T02:10:50;68070;;;15.68;100
51417;BME280;50158;51.528;6.982;2022-10-24T02:13:28;68090;;;15.82;100
51417;BME280;50158;51.528;6.982;2022-10-24T02:17:15;68090;;;15.85;100
51417;BME280;50158;51.528;6.982;2022-10-24T02:22:16;68080;;;15.81;100
51417;BME280;50158;51.528;6.982;2022-10-24T02:28:22;68070;;;15.72;100
51417;BME280;50158;51.528;6.982;2022-10-24T02:33:18;68090;;;15.86;100
51417;BME280;50158;51.528;6.982;2022-10-24T02:38:19;68110;;;16.01;100
51417;BME280;50158;51.528;6.982;2022-10-24T02:43:28;68090;;;15.83;100
51417;BME280;50158;51.528;6.982;2022-10-24T02:47:10;68090;;;15.87;100
51417;BME280;50158;51.528;6.982;2022-10-24T02:53:22;68100;;;15.96;100
51417;BME280;50158;51.528;6.982;2022-10-24T02:55:49;68090;;;15.9;100
51417;BME280;50158;51.528;6.982;2022-10-24T02:58:09;68100;;;16.01;100
51417;BME280;50158;51.528;6.982;2022-10-24T03:03:14;68090;;;15.88;100
51417;BME280;50158;51.528;6.982;2022-10-24T03:09:33;68090;;;15.85;100
51417;BME280;50158;51.528;6.982;2022-10-24T03:13:15;68090;;;15.9;100
51417;BME280;50158;51.528;6.982;2022-10-24T03:18:12;68100;;;15.98;100
51417;BME280;50158;51.528;6.982;2022-10-24T03:24:23;68110;;;16.04;100
51417;BME280;50158;51.528;6.982;2022-10-24T03:29:19;68110;;;16.03;100
51417;BME280;50158;51.528;6.982;2022-10-24T03:35:38;68100;;;15.98;100
51417;BME280;50158;51.528;6.982;2022-10-24T03:39:28;68100;;;15.94;100
51417;BME280;50158;51.528;6.982;2022-10-24T03:43:19;68090;;;15.88;100
51417;BME280;50158;51.528;6.982;2022-10-24T03:45:47;68110;;;16.02;100
51417;BME280;50158;51.528;6.982;2022-10-24T03:48:16;68110;;;16.01;100
51417;BME280;50158;51.528;6.982;2022-10-24T03:50:44;68100;;;15.91;100
51417;BME280;50158;51.528;6.982;2022-10-24T03:53:12;68090;;;15.86;100
51417;BME280;50158;51.528;6.982;2022-10-24T03:55:40;68080;;;15.81;100
51417;BME280;50158;51.528;6.982;2022-10-24T03:58:09;68110;;;16.04;100
51417;BME280;50158;51.528;6.982;2022-10-24T04:00:37;68120;;;16.16;100
51417;BME280;50158;51.528;6.982;2022-10-24T04:03:06;68120;;;16.17;100
51417;BME280;50158;51.528;6.982;2022-10-24T04:05:34;68130;;;16.26;100
51417;BME280;50158;51.528;6.982;2022-10-24T04:08:10;68120;;;16.1;100
51417;BME280;50158;51.528;6.982;2022-10-24T04:14:13;68110;;;16.04;100
51417;BME280;50158;51.528;6.982;2022-10-24T04:20:31;68110;;;16.04;100
51417;BME280;50158;51.528;6.982;2022-10-24T04:24:14;68120;;;16.12;100
51417;BME280;50158;51.528;6.982;2022-10-24T04:29:10;68120;;;16.15;100
51417;BME280;50158;51.528;6.982;2022-10-24T04:35:21;68110;;;16.04;100
51417;BME280;50158;51.528;6.982;2022-10-24T04:40:34;68080;;;15.77;100
51417;BME280;50158;51.528;6.982;2022-10-24T04:44:16;68070;;;15.69;100
51417;BME280;50158;51.528;6.982;2022-10-24T04:49:29;68060;;;15.63;100
51417;BME280;50158;51.528;6.982;2022-10-24T04:59:22;68070;;;15.7;100
51417;BME280;50158;51.528;6.982;2022-10-24T05:03:13;68060;;;15.6;100
51417;BME280;50158;51.528;6.982;2022-10-24T05:09:15;68100;;;15.91;100
51417;BME280;50158;51.528;6.982;2022-10-24T05:12:58;68100;;;15.97;100
51417;BME280;50158;51.528;6.982;2022-10-24T05:14:12;68090;;;15.91;100
51417;BME280;50158;51.528;6.982;2022-10-24T05:19:25;68100;;;15.93;100
51417;BME280;50158;51.528;6.982;2022-10-24T05:24:22;68110;;;16.01;100
51417;BME280;50158;51.528;6.982;2022-10-24T05:29:18;68100;;;15.99;100
51417;BME280;50158;51.528;6.982;2022-10-24T05:34:14;68120;;;16.17;100
51417;BME280;50158;51.528;6.982;2022-10-24T05:39:11;68100;;;15.97;100
51417;BME280;50158;51.528;6.982;2022-10-24T05:48:15;68070;;;15.65;100
51417;BME280;50158;51.528;6.982;2022-10-24T05:53:27;68060;;;15.56;100
51417;BME280;50158;51.528;6.982;2022-10-24T05:57:18;68050;;;15.51;100
51417;BME280;50158;51.528;6.982;2022-10-24T06:02:17;68040;;;15.43;100
51417;BME280;50158;51.528;6.982;2022-10-24T06:07:11;68050;;;15.51;100
51417;BME280;50158;51.528;6.982;2022-10-24T06:08:25;68060;;;15.55;100
51417;BME280;50158;51.528;6.982;2022-10-24T06:13:13;68060;;;15.53;100
51417;BME280;50158;51.528;6.982;2022-10-24T06:18:10;68050;;;15.49;100
51417;BME280;50158;51.528;6.982;2022-10-24T06:23:23;68050;;;15.47;100
51417;BME280;50158;51.528;6.982;2022-10-24T06:28:20;68020;;;15.23;100
51417;BME280;50158;51.528;6.982;2022-10-24T06:32:18;68040;;;15.39;100
51417;BME280;50158;51.528;6.982;2022-10-24T06:37:23;68050;;;15.49;100
51417;BME280;50158;51.528;6.982;2022-10-24T06:41:14;68060;;;15.58;100
51417;BME280;50158;51.528;6.982;2022-10-24T06:46:12;68070;;;15.64;100
51417;BME280;50158;51.528;6.982;2022-10-24T06:52:21;68070;;;15.67;100
51417;BME280;50158;51.528;6.982;2022-10-24T06:57:17;68060;;;15.62;100
51417;BME280;50158;51.528;6.982;2022-10-24T07:02:15;68050;;;15.54;100
51417;BME280;50158;51.528;6.982;2022-10-24T07:07:19;68060;;;15.53;100
51417;BME280;50158;51.528;6.982;2022-10-24T07:11:17;68060;;;15.56;100
51417;BME280;50158;51.528;6.982;2022-10-24T07:16:14;68070;;;15.64;100
51417;BME280;50158;51.528;6.982;2022-10-24T07:21:20;68070;;;15.66;100
51417;BME280;50158;51.528;6.982;2022-10-24T07:26:24;68090;;;15.86;100
51417;BME280;50158;51.528;6.982;2022-10-24T07:31:21;68090;;;15.91;100
51417;BME280;50158;51.528;6.982;2022-10-24T07:36:17;68090;;;15.89;100
51417;BME280;50158;51.528;6.982;2022-10-24T07:41:13;68100;;;15.92;100
51417;BME280;50158;51.528;6.982;2022-10-24T07:47:24;68070;;;15.65;100
51417;BME280;50158;51.528;6.982;2022-10-24T07:51:22;68090;;;15.89;100
51417;BME280;50158;51.528;6.982;2022-10-24T07:56:19;68110;;;16.01;100
51417;BME280;50158;51.528;6.982;2022-10-24T08:01:17;68100;;;15.97;100
51417;BME280;50158;51.528;6.982;2022-10-24T08:06:13;68160;;;16.46;100
51417;BME280;50158;51.528;6.982;2022-10-24T08:12:23;68180;;;16.73;100
51417;BME280;50158;51.528;6.982;2022-10-24T08:16:14;68200;;;16.85;100
51417;BME280;50158;51.528;6.982;2022-10-24T08:22:24;68190;;;16.79;100
51417;BME280;50158;51.528;6.982;2022-10-24T08:27:20;68210;;;16.93;100
51417;BME280;50158;51.528;6.982;2022-10-24T08:32:17;68200;;;16.87;100
51417;BME280;50158;51.528;6.982;2022-10-24T08:37:13;68230;;;17.12;100
51417;BME280;50158;51.528;6.982;2022-10-24T08:42:18;68230;;;17.15;100
51417;BME280;50158;51.528;6.982;2022-10-24T08:47:28;68240;;;17.21;100
51417;BME280;50158;51.528;6.982;2022-10-24T08:53:26;68260;;;17.41;100
51417;BME280;50158;51.528;6.982;2022-10-24T08:57:18;68260;;;17.4;100
51417;BME280;50158;51.528;6.982;2022-10-24T09:02:17;68260;;;17.46;100
51417;BME280;50158;51.528;6.982;2022-10-24T09:18:35;68280;;;17.56;100
51417;BME280;50158;51.528;6.982;2022-10-24T09:22:24;68280;;;17.57;100
51417;BME280;50158;51.528;6.982;2022-10-24T09:27:24;68290;;;17.7;100
51417;BME280;50158;51.528;6.982;2022-10-24T09:32:18;68300;;;17.83;100
51417;BME280;50158;51.528;6.982;2022-10-24T09:37:45;68290;;;17.71;100
51417;BME280;50158;51.528;6.982;2022-10-24T09:47:30;68280;;;17.59;100
51417;BME280;50158;51.528;6.982;2022-10-24T09:51:25;68260;;;17.46;100
51417;BME280;50158;51.528;6.982;2022-10-24T09:56:17;68300;;;17.83;100
51417;BME280;50158;51.528;6.982;2022-10-24T10:01:19;68340;;;18.17;100
51417;BME280;50158;51.528;6.982;2022-10-24T10:12:46;68330;;;18.09;100
51417;BME280;50158;51.528;6.982;2022-10-24T10:17:22;68290;;;17.7;99.54
51417;BME280;50158;51.528;6.982;2022-10-24T10:22:31;68310;;;17.86;100
51417;BME280;50158;51.528;6.982;2022-10-24T10:26:15;68330;;;18.06;99.26
51417;BME280;50158;51.528;6.982;2022-10-24T10:31:22;68390;;;18.59;98.48
51417;BME280;50158;51.528;6.982;2022-10-24T10:36:23;68390;;;18.59;96.28
51417;BME280;50158;51.528;6.982;2022-10-24T10:41:24;68400;;;18.66;97.73
51417;BME280;50158;51.528;6.982;2022-10-24T10:46:21;68380;;;18.48;97.77
51417;BME280;50158;51.528;6.982;2022-10-24T10:51:17;68420;;;18.85;97.86
51417;BME280;50158;51.528;6.982;2022-10-24T10:58:29;68410;;;18.82;95.71
51417;BME280;50158;51.528;6.982;2022-10-24T11:02:43;68420;;;18.91;95.14
51417;BME280;50158;51.528;6.982;2022-10-24T11:06:21;68420;;;18.9;95.15
51417;BME280;50158;51.528;6.982;2022-10-24T11:11:15;68420;;;18.9;96.7
51417;BME280;50158;51.528;6.982;2022-10-24T11:17:19;68380;;;18.54;96.72
51417;BME280;50158;51.528;6.982;2022-10-24T11:22:15;68360;;;18.36;97.58
51417;BME280;50158;51.528;6.982;2022-10-24T11:27:12;68380;;;18.54;98.59
51417;BME280;50158;51.528;6.982;2022-10-24T11:33:23;68350;;;18.27;99.71
51417;BME280;50158;51.528;6.982;2022-10-24T11:37:13;68330;;;18.01;100
51417;BME280;50158;51.528;6.982;2022-10-24T11:42:29;68280;;;17.6;100
51417;BME280;50158;51.528;6.982;2022-10-24T11:46:16;68290;;;17.65;100
51417;BME280;50158;51.528;6.982;2022-10-24T11:52:19;68280;;;17.56;100
51417;BME280;50158;51.528;6.982;2022-10-24T11:57:23;68270;;;17.48;100
51417;BME280;50158;51.528;6.982;2022-10-24T12:01:26;68270;;;17.54;100
51417;BME280;50158;51.528;6.982;2022-10-24T12:06:31;68290;;;17.71;100
51417;BME280;50158;51.528;6.982;2022-10-24T12:11:48;68290;;;17.68;100
51417;BME280;50158;51.528;6.982;2022-10-24T12:15:37;68250;;;17.29;100
51417;BME280;50158;51.528;6.982;2022-10-24T12:20:11;68190;;;16.79;100
51417;BME280;50158;51.528;6.982;2022-10-24T12:26:24;68220;;;17.02;100
51417;BME280;50158;51.528;6.982;2022-10-24T12:31:26;68220;;;17.09;100
51417;BME280;50158;51.528;6.982;2022-10-24T12:36:58;68260;;;17.4;100
51417;BME280;50158;51.528;6.982;2022-10-24T12:40:46;68260;;;17.39;100
51417;BME280;50158;51.528;6.982;2022-10-24T12:46:51;68260;;;17.37;100
51417;BME280;50158;51.528;6.982;2022-10-24T12:51:28;68270;;;17.52;100
51417;BME280;50158;51.528;6.982;2022-10-24T12:56:16;68300;;;17.82;100
51417;BME280;50158;51.528;6.982;2022-10-24T13:01:44;68310;;;17.83;100
51417;BME280;50158;51.528;6.982;2022-10-24T13:06:56;68330;;;18.07;100
51417;BME280;50158;51.528;6.982;2022-10-24T13:11:27;68340;;;18.17;100
51417;BME280;50158;51.528;6.982;2022-10-24T13:12:41;68330;;;18.07;100
51417;BME280;50158;51.528;6.982;2022-10-24T13:22:25;68540;;;19.96;95.18
51417;BME280;50158;51.528;6.982;2022-10-24T13:27:26;68530;;;19.87;96.26
51417;BME280;50158;51.528;6.982;2022-10-24T13:32:22;68450;;;19.15;100
51417;BME280;50158;51.528;6.982;2022-10-24T13:36:16;68420;;;18.87;100
51417;BME280;50158;51.528;6.982;2022-10-24T13:41:19;68460;;;19.26;100
51417;BME280;50158;51.528;6.982;2022-10-24T13:46:19;68410;;;18.81;100
51417;BME280;50158;51.528;6.982;2022-10-24T13:51:14;68410;;;18.84;100
51417;BME280;50158;51.528;6.982;2022-10-24T13:57:23;68360;;;18.32;100
51417;BME280;50158;51.528;6.982;2022-10-24T14:01:20;68320;;;18;100
51417;BME280;50158;51.528;6.982;2022-10-24T14:06:21;68310;;;17.87;100
51417;BME280;50158;51.528;6.982;2022-10-24T14:11:14;68310;;;17.87;100
51417;BME280;50158;51.528;6.982;2022-10-24T14:13:42;68300;;;17.82;100
51417;BME280;50158;51.528;6.982;2022-10-24T14:17:18;68300;;;17.79;100
51417;BME280;50158;51.528;6.982;2022-10-24T14:22:16;68290;;;17.7;100
51417;BME280;50158;51.528;6.982;2022-10-24T14:28:33;68140;;;16.31;100
51417;BME280;50158;51.528;6.982;2022-10-24T14:32:13;68080;;;15.72;100
51417;BME280;50158;51.528;6.982;2022-10-24T14:37:13;68030;;;15.27;100
51417;BME280;50158;51.528;6.982;2022-10-24T14:42:23;67990;;;14.92;100
51417;BME280;50158;51.528;6.982;2022-10-24T14:47:24;67890;;;14.03;100
51417;BME280;50158;51.528;6.982;2022-10-24T14:52:19;67830;;;13.48;100
51417;BME280;50158;51.528;6.982;2022-10-24T14:57:15;67830;;;13.41;100
51417;BME280;50158;51.528;6.982;2022-10-24T15:03:23;67830;;;13.5;100
51417;BME280;50158;51.528;6.982;2022-10-24T15:09:50;67830;;;13.42;100
51417;BME280;50158;51.528;6.982;2022-10-24T15:12:10;67820;;;13.38;100
51417;BME280;50158;51.528;6.982;2022-10-24T15:15:46;67830;;;13.44;100
51417;BME280;50158;51.528;6.982;2022-10-24T15:18:06;67830;;;13.42;100
51417;BME280;50158;51.528;6.982;2022-10-24T15:20:34;67830;;;13.48;100
51417;BME280;50158;51.528;6.982;2022-10-24T15:23:01;67840;;;13.57;100
51417;BME280;50158;51.528;6.982;2022-10-24T15:25:31;67850;;;13.67;100
51417;BME280;50158;51.528;6.982;2022-10-24T15:27:57;67850;;;13.67;100
51417;BME280;50158;51.528;6.982;2022-10-24T15:30:27;67850;;;13.69;100
51417;BME280;50158;51.528;6.982;2022-10-24T15:34:17;67860;;;13.74;100
51417;BME280;50158;51.528;6.982;2022-10-24T15:39:22;67880;;;13.9;100
51417;BME280;50158;51.528;6.982;2022-10-24T15:43:12;67880;;;13.96;100
51417;BME280;50158;51.528;6.982;2022-10-24T15:48:24;67890;;;14;100
51417;BME280;50158;51.528;6.982;2022-10-24T15:53:29;67890;;;14.01;100
51417;BME280;50158;51.528;6.982;2022-10-24T15:57:20;67890;;;14.03;100
51417;BME280;50158;51.528;6.982;2022-10-24T16:01:17;67900;;;14.09;100
51417;BME280;50158;51.528;6.982;2022-10-24T16:06:15;67920;;;14.32;100
51417;BME280;50158;51.528;6.982;2022-10-24T16:11:20;67940;;;14.45;100
51417;BME280;50158;51.528;6.982;2022-10-24T16:17:22;67930;;;14.4;100
51417;BME280;50158;51.528;6.982;2022-10-24T16:21:15;67930;;;14.4;100
51417;BME280;50158;51.528;6.982;2022-10-24T16:26:17;67920;;;14.28;100
51417;BME280;50158;51.528;6.982;2022-10-24T16:31:22;67910;;;14.22;100
51417;BME280;50158;51.528;6.982;2022-10-24T16:41:24;67930;;;14.41;100
51417;BME280;50158;51.528;6.982;2022-10-24T16:46:20;67940;;;14.48;100
51417;BME280;50158;51.528;6.982;2022-10-24T16:50:11;67930;;;14.38;100
51417;BME280;50158;51.528;6.982;2022-10-24T16:54:01;67930;;;14.33;100
51417;BME280;50158;51.528;6.982;2022-10-24T16:56:29;67920;;;14.27;100
51417;BME280;50158;51.528;6.982;2022-10-24T16:58:58;67910;;;14.16;100
51417;BME280;50158;51.528;6.982;2022-10-24T17:01:26;67900;;;14.06;100
51417;BME280;50158;51.528;6.982;2022-10-24T17:03:54;67890;;;14.04;100
51417;BME280;50158;51.528;6.982;2022-10-24T17:06:22;67900;;;14.06;100
51417;BME280;50158;51.528;6.982;2022-10-24T17:08:51;67900;;;14.09;100
51417;BME280;50158;51.528;6.982;2022-10-24T17:13:06;67910;;;14.15;100
51417;BME280;50158;51.528;6.982;2022-10-24T17:19:17;67890;;;14.02;100
51417;BME280;50158;51.528;6.982;2022-10-24T17:24:30;67880;;;13.94;100
51417;BME280;50158;51.528;6.982;2022-10-24T17:28:12;67880;;;13.95;100
51417;BME280;50158;51.528;6.982;2022-10-24T17:33:25;67900;;;14.06;100
51417;BME280;50158;51.528;6.982;2022-10-24T17:37:18;67900;;;14.12;100
51417;BME280;50158;51.528;6.982;2022-10-24T17:42:20;67910;;;14.17;100
51417;BME280;50158;51.528;6.982;2022-10-24T17:46:11;67900;;;14.12;100
51417;BME280;50158;51.528;6.982;2022-10-24T17:52:30;67920;;;14.25;100
51417;BME280;50158;51.528;6.982;2022-10-24T17:56:20;67920;;;14.27;100
51417;BME280;50158;51.528;6.982;2022-10-24T18:01:25;67900;;;14.14;100
51417;BME280;50158;51.528;6.982;2022-10-24T18:05:24;67890;;;14.02;100
51417;BME280;50158;51.528;6.982;2022-10-24T18:09:14;67890;;;14.03;100
51417;BME280;50158;51.528;6.982;2022-10-24T18:14:19;67880;;;13.9;100
51417;BME280;50158;51.528;6.982;2022-10-24T18:20:21;67850;;;13.66;100
51417;BME280;50158;51.528;6.982;2022-10-24T18:25:18;67860;;;13.7;100
51417;BME280;50158;51.528;6.982;2022-10-24T18:30:15;67830;;;13.46;100
51417;BME280;50158;51.528;6.982;2022-10-24T18:35:11;67800;;;13.15;100
51417;BME280;50158;51.528;6.982;2022-10-24T18:41:33;67780;;;13;100
51417;BME280;50158;51.528;6.982;2022-10-24T18:51:26;67780;;;12.97;100
51417;BME280;50158;51.528;6.982;2022-10-24T18:55:22;67780;;;12.95;100
51417;BME280;50158;51.528;6.982;2022-10-24T18:57:42;67770;;;12.95;100
51417;BME280;50158;51.528;6.982;2022-10-24T19:00:12;67760;;;12.84;100
51417;BME280;50158;51.528;6.982;2022-10-24T19:02:49;67760;;;12.83;100
51417;BME280;50158;51.528;6.982;2022-10-24T19:05:18;67750;;;12.73;100
51417;BME280;50158;51.528;6.982;2022-10-24T19:07:35;67750;;;12.74;100
51417;BME280;50158;51.528;6.982;2022-10-24T19:10:03;67770;;;12.92;100
51417;BME280;50158;51.528;6.982;2022-10-24T19:13:54;67770;;;12.89;100
51417;BME280;50158;51.528;6.982;2022-10-24T19:18:44;67770;;;12.87;100
51417;BME280;50158;51.528;6.982;2022-10-24T19:21:10;67760;;;12.8;100
51417;BME280;50158;51.528;6.982;2022-10-24T19:23:39;67760;;;12.81;100
51417;BME280;50158;51.528;6.982;2022-10-24T19:26:08;67750;;;12.7;100
51417;BME280;50158;51.528;6.982;2022-10-24T19:28:35;67770;;;12.9;100
51417;BME280;50158;51.528;6.982;2022-10-24T19:32:26;67770;;;12.89;100
51417;BME280;50158;51.528;6.982;2022-10-24T19:36:16;67770;;;12.9;100
51417;BME280;50158;51.528;6.982;2022-10-24T19:38:45;67770;;;12.92;100
51417;BME280;50158;51.528;6.982;2022-10-24T19:41:29;67780;;;13.03;100
51417;BME280;50158;51.528;6.982;2022-10-24T19:44:06;67790;;;13.05;100
51417;BME280;50158;51.528;6.982;2022-10-24T19:46:34;67790;;;13.11;100
51417;BME280;50158;51.528;6.982;2022-10-24T19:49:02;67810;;;13.24;100
51417;BME280;50158;51.528;6.982;2022-10-24T19:52:45;67810;;;13.23;100
51417;BME280;50158;51.528;6.982;2022-10-24T19:53:59;67800;;;13.2;100
51417;BME280;50158;51.528;6.982;2022-10-24T19:56:27;67810;;;13.27;100
51417;BME280;50158;51.528;6.982;2022-10-24T19:58:55;67810;;;13.25;100
51417;BME280;50158;51.528;6.982;2022-10-24T20:01:25;67810;;;13.29;100
51417;BME280;50158;51.528;6.982;2022-10-24T20:03:52;67820;;;13.38;100
51417;BME280;50158;51.528;6.982;2022-10-24T20:06:20;67810;;;13.27;100
51417;BME280;50158;51.528;6.982;2022-10-24T20:10:11;67800;;;13.15;100
51417;BME280;50158;51.528;6.982;2022-10-24T20:15:15;67800;;;13.19;100
51417;BME280;50158;51.528;6.982;2022-10-24T20:17:44;67810;;;13.31;100
51417;BME280;50158;51.528;6.982;2022-10-24T20:20:04;67840;;;13.5;100
51417;BME280;50158;51.528;6.982;2022-10-24T20:26:16;67860;;;13.7;100
51417;BME280;50158;51.528;6.982;2022-10-24T20:31:19;67840;;;13.52;100
51417;BME280;50158;51.528;6.982;2022-10-24T20:41:20;67810;;;13.23;100
51417;BME280;50158;51.528;6.982;2022-10-24T20:45:11;67790;;;13.05;100
51417;BME280;50158;51.528;6.982;2022-10-24T20:51:22;67760;;;12.84;100
51417;BME280;50158;51.528;6.982;2022-10-24T20:55:12;67750;;;12.75;100
51417;BME280;50158;51.528;6.982;2022-10-24T21:00:17;67750;;;12.66;100
51417;BME280;50158;51.528;6.982;2022-10-24T21:05:22;67750;;;12.7;100
51417;BME280;50158;51.528;6.982;2022-10-24T21:09:12;67740;;;12.67;100
51417;BME280;50158;51.528;6.982;2022-10-24T21:15:23;67760;;;12.77;100
51417;BME280;50158;51.528;6.982;2022-10-24T21:20:11;67750;;;12.74;100
51417;BME280;50158;51.528;6.982;2022-10-24T21:26:22;67750;;;12.7;100
51417;BME280;50158;51.528;6.982;2022-10-24T21:31:19;67750;;;12.66;100
51417;BME280;50158;51.528;6.982;2022-10-24T21:36:31;67750;;;12.75;100
51417;BME280;50158;51.528;6.982;2022-10-24T21:40:14;67760;;;12.85;100
51417;BME280;50158;51.528;6.982;2022-10-24T21:45:10;67770;;;12.85;100
51417;BME280;50158;51.528;6.982;2022-10-24T21:51:23;67780;;;12.98;100
51417;BME280;50158;51.528;6.982;2022-10-24T21:56:19;67770;;;12.88;100
51417;BME280;50158;51.528;6.982;2022-10-24T22:06:28;67760;;;12.84;100
51417;BME280;50158;51.528;6.982;2022-10-24T22:10:34;67770;;;12.86;100
51417;BME280;50158;51.528;6.982;2022-10-24T22:14:17;67760;;;12.78;100
51417;BME280;50158;51.528;6.982;2022-10-24T22:20:19;67760;;;12.79;100
51417;BME280;50158;51.528;6.982;2022-10-24T22:25:32;67770;;;12.89;100
51417;BME280;50158;51.528;6.982;2022-10-24T22:29:15;67780;;;12.98;100
51417;BME280;50158;51.528;6.982;2022-10-24T22:34:15;67800;;;13.16;100
51417;BME280;50158;51.528;6.982;2022-10-24T22:40:24;67790;;;13.13;100
51417;BME280;50158;51.528;6.982;2022-10-24T22:45:18;67800;;;13.14;100
51417;BME280;50158;51.528;6.982;2022-10-24T22:50:30;67800;;;13.17;100
51417;BME280;50158;51.528;6.982;2022-10-24T22:54:22;67810;;;13.26;100
51417;BME280;50158;51.528;6.982;2022-10-24T22:59:18;67810;;;13.29;100
51417;BME280;50158;51.528;6.982;2022-10-24T23:04:33;67820;;;13.38;100
51417;BME280;50158;51.528;6.982;2022-10-24T23:08:21;67800;;;13.19;100
51417;BME280;50158;51.528;6.982;2022-10-24T23:13:18;67790;;;13.04;100
51417;BME280;50158;51.528;6.982;2022-10-24T23:18:23;67780;;;13;100
51417;BME280;50158;51.528;6.982;2022-10-24T23:23:19;67790;;;13.07;100
51417;BME280;50158;51.528;6.982;2022-10-24T23:27:19;67790;;;13.11;100
51417;BME280;50158;51.528;6.982;2022-10-24T23:33:22;67820;;;13.39;100
51417;BME280;50158;51.528;6.982;2022-10-24T23:38:17;67830;;;13.45;100
51417;BME280;50158;51.528;6.982;2022-10-24T23:43:15;67820;;;13.38;100
51417;BME280;50158;51.528;6.982;2022-10-24T23:48:14;67810;;;13.28;100
51417;BME280;50158;51.528;6.982;2022-10-24T23:53:19;67800;;;13.17;100
51417;BME280;50158;51.528;6.982;2022-10-24T23:58:20;67810;;;13.32;100
